createdAt,value
2023-06-10T00:00:14.116Z,101092.47
2023-06-10T00:02:40.948Z,101090.00
2023-06-10T00:05:08.586Z,101097.53
2023-06-10T00:07:35.505Z,101093.16
2023-06-10T00:10:02.060Z,101088.19
2023-06-10T00:12:28.597Z,101094.31
2023-06-10T00:14:55.129Z,101093.72
2023-06-10T00:17:22.989Z,101090.41
2023-06-10T00:19:49.565Z,101099.81
2023-06-10T00:22:16.246Z,101102.75
2023-06-10T00:24:42.882Z,101100.53
2023-06-10T00:27:09.472Z,101096.41
2023-06-10T00:29:36.128Z,101099.56
2023-06-10T00:32:03.250Z,101104.00
2023-06-10T00:34:31.411Z,101095.50
2023-06-10T00:36:57.967Z,101096.66
2023-06-10T00:39:24.665Z,101099.41
2023-06-10T00:41:51.190Z,101097.41
2023-06-10T00:44:17.788Z,101105.75
2023-06-10T00:46:44.730Z,101097.47
2023-06-10T00:49:11.909Z,101104.19
2023-06-10T00:51:40.343Z,101106.53
2023-06-10T00:54:07.999Z,101103.91
2023-06-10T00:56:34.817Z,101099.63
2023-06-10T00:59:01.409Z,101100.31
2023-06-10T01:01:28.028Z,101102.47
2023-06-10T01:03:54.578Z,101100.06
2023-06-10T01:06:35.245Z,101096.81
2023-06-10T01:09:13.894Z,101101.69
2023-06-10T01:11:47.650Z,101100.69
2023-06-10T01:14:14.809Z,101101.13
2023-06-10T01:16:41.375Z,101108.50
2023-06-10T01:19:07.989Z,101103.75
2023-06-10T01:21:38.581Z,101107.56
2023-06-10T01:24:06.029Z,101103.41
2023-06-10T01:26:35.227Z,101103.06
2023-06-10T01:29:12.434Z,101106.47
2023-06-10T01:31:43.967Z,101105.25
2023-06-10T01:34:13.809Z,101099.91
2023-06-10T01:36:45.448Z,101098.91
2023-06-10T01:39:12.970Z,101101.44
2023-06-10T01:41:40.898Z,101107.69
2023-06-10T01:44:07.491Z,101105.88
2023-06-10T01:46:34.054Z,101109.63
2023-06-10T01:49:00.560Z,101117.16
2023-06-10T01:51:27.149Z,101113.22
2023-06-10T01:53:55.015Z,101109.75
2023-06-10T01:56:21.560Z,101112.25
2023-06-10T01:58:48.218Z,101101.91
2023-06-10T02:01:15.494Z,101106.91
2023-06-10T02:03:42.209Z,101114.63
2023-06-10T02:06:08.869Z,101115.69
2023-06-10T02:08:35.428Z,101112.56
2023-06-10T02:11:03.295Z,101116.97
2023-06-10T02:13:29.835Z,101117.38
2023-06-10T02:15:56.505Z,101113.50
2023-06-10T02:18:23.113Z,101115.56
2023-06-10T02:20:50.045Z,101115.78
2023-06-10T02:23:16.628Z,101118.91
2023-06-10T02:25:43.215Z,101112.06
2023-06-10T02:28:11.119Z,101119.53
2023-06-10T02:30:40.280Z,101121.00
2023-06-10T02:33:06.810Z,101121.22
2023-06-10T02:35:33.371Z,101122.88
2023-06-10T02:37:59.917Z,101124.38
2023-06-10T02:40:26.421Z,101136.59
2023-06-10T02:42:52.930Z,101124.16
2023-06-10T02:45:20.844Z,101121.91
2023-06-10T02:47:47.418Z,101127.69
2023-06-10T02:50:13.978Z,101126.25
2023-06-10T02:52:40.556Z,101132.47
2023-06-10T02:55:07.857Z,101126.88
2023-06-10T02:57:34.697Z,101121.28
2023-06-10T03:00:01.262Z,101131.66
2023-06-10T03:02:29.175Z,101128.34
2023-06-10T03:04:56.116Z,101135.38
2023-06-10T03:07:22.703Z,101130.84
2023-06-10T03:09:49.265Z,101134.16
2023-06-10T03:12:15.965Z,101133.34
2023-06-10T03:14:42.579Z,101135.41
2023-06-10T03:17:09.152Z,101141.63
2023-06-10T03:19:37.084Z,101136.25
2023-06-10T03:22:11.241Z,101133.34
2023-06-10T03:24:38.197Z,101130.19
2023-06-10T03:27:05.517Z,101132.88
2023-06-10T03:29:32.081Z,101139.50
2023-06-10T03:31:58.627Z,101138.47
2023-06-10T03:34:25.209Z,101132.25
2023-06-10T03:36:53.102Z,101132.06
2023-06-10T03:39:19.653Z,101139.72
2023-06-10T03:41:46.248Z,101138.88
2023-06-10T03:44:12.949Z,101137.47
2023-06-10T03:46:39.541Z,101144.91
2023-06-10T03:49:06.136Z,101148.63
2023-06-10T03:51:32.697Z,101142.63
2023-06-10T03:54:00.618Z,101153.00
2023-06-10T03:56:27.182Z,101151.72
2023-06-10T03:58:53.806Z,101157.75
2023-06-10T04:01:20.396Z,101151.53
2023-06-10T04:03:46.912Z,101156.91
2023-06-10T04:06:14.645Z,101155.06
2023-06-10T04:08:41.224Z,101160.63
2023-06-10T04:11:09.182Z,101160.63
2023-06-10T04:13:35.775Z,101161.03
2023-06-10T04:16:02.305Z,101161.47
2023-06-10T04:18:28.838Z,101153.19
2023-06-10T04:20:55.563Z,101156.09
2023-06-10T04:23:22.210Z,101162.69
2023-06-10T04:25:48.748Z,101167.06
2023-06-10T04:28:16.743Z,101170.38
2023-06-10T04:30:43.338Z,101173.50
2023-06-10T04:33:09.938Z,101173.50
2023-06-10T04:35:36.602Z,101178.47
2023-06-10T04:38:03.142Z,101175.38
2023-06-10T04:40:29.708Z,101177.66
2023-06-10T04:42:56.363Z,101180.75
2023-06-10T04:45:24.270Z,101183.25
2023-06-10T04:47:50.912Z,101173.94
2023-06-10T04:50:17.493Z,101178.09
2023-06-10T04:52:44.037Z,101179.50
2023-06-10T04:55:10.896Z,101178.94
2023-06-10T04:57:37.672Z,101173.97
2023-06-10T05:00:05.220Z,101182.47
2023-06-10T05:02:33.153Z,101179.34
2023-06-10T05:04:59.895Z,101178.75
2023-06-10T05:07:26.525Z,101175.22
2023-06-10T05:09:53.070Z,101181.63
2023-06-10T05:12:19.579Z,101176.88
2023-06-10T05:14:46.193Z,101177.72
2023-06-10T05:17:12.758Z,101182.25
2023-06-10T05:19:40.714Z,101180.81
2023-06-10T05:22:07.412Z,101177.50
2023-06-10T05:24:33.954Z,101188.69
2023-06-10T05:27:00.864Z,101176.84
2023-06-10T05:29:27.457Z,101177.28
2023-06-10T05:31:54.025Z,101180.78
2023-06-10T05:34:20.632Z,101176.63
2023-06-10T05:36:48.557Z,101182.22
2023-06-10T05:39:15.111Z,101185.97
2023-06-10T05:41:41.675Z,101184.28
2023-06-10T05:44:08.195Z,101181.38
2023-06-10T05:46:35.171Z,101180.13
2023-06-10T05:49:01.796Z,101181.38
2023-06-10T05:51:28.388Z,101178.06
2023-06-10T05:53:56.354Z,101178.47
2023-06-10T05:56:22.980Z,101182.78
2023-06-10T05:58:49.679Z,101182.78
2023-06-10T06:01:16.497Z,101178.19
2023-06-10T06:03:43.254Z,101181.91
2023-06-10T06:06:09.988Z,101183.13
2023-06-10T06:08:36.551Z,101190.75
2023-06-10T06:11:04.502Z,101187.00
2023-06-10T06:13:31.074Z,101184.69
2023-06-10T06:15:57.662Z,101188.41
2023-06-10T06:18:24.211Z,101183.38
2023-06-10T06:20:50.847Z,101188.56
2023-06-10T06:23:17.435Z,101188.28
2023-06-10T06:25:43.970Z,101189.56
2023-06-10T06:28:11.857Z,101187.63
2023-06-10T06:30:38.444Z,101198.38
2023-06-10T06:33:05.065Z,101196.50
2023-06-10T06:35:32.032Z,101194.56
2023-06-10T06:37:58.650Z,101193.69
2023-06-10T06:40:25.376Z,101203.00
2023-06-10T06:42:51.905Z,101201.09
2023-06-10T06:45:19.831Z,101202.28
2023-06-10T06:47:46.459Z,101208.09
2023-06-10T06:50:13.056Z,101199.94
2023-06-10T06:52:39.658Z,101211.53
2023-06-10T06:55:07.272Z,101201.25
2023-06-10T06:57:33.948Z,101209.13
2023-06-10T07:00:00.548Z,101206.13
2023-06-10T07:02:28.427Z,101210.44
2023-06-10T07:04:54.975Z,101214.78
2023-06-10T07:07:21.613Z,101214.09
2023-06-10T07:09:48.169Z,101205.56
2023-06-10T07:12:14.691Z,101214.41
2023-06-10T07:14:41.256Z,101217.28
2023-06-10T07:17:08.026Z,101216.16
2023-06-10T07:19:35.960Z,101213.97
2023-06-10T07:22:02.558Z,101223.91
2023-06-10T07:24:29.133Z,101224.22
2023-06-10T07:26:55.679Z,101230.78
2023-06-10T07:29:22.215Z,101216.09
2023-06-10T07:31:48.797Z,101224.97
2023-06-10T07:34:15.315Z,101221.34
2023-06-10T07:36:43.235Z,101227.50
2023-06-10T07:39:09.777Z,101224.47
2023-06-10T07:41:36.345Z,101228.50
2023-06-10T07:44:03.690Z,101228.56
2023-06-10T07:46:30.410Z,101226.44
2023-06-10T07:48:56.962Z,101227.81
2023-06-10T07:51:23.529Z,101231.00
2023-06-10T07:53:51.465Z,101226.50
2023-06-10T07:56:18.074Z,101228.69
2023-06-10T07:58:44.693Z,101225.25
2023-06-10T08:01:11.232Z,101233.06
2023-06-10T08:03:37.836Z,101226.09
2023-06-10T08:06:04.763Z,101224.91
2023-06-10T08:08:31.273Z,101223.25
2023-06-10T08:10:59.173Z,101226.13
2023-06-10T08:13:25.731Z,101222.91
2023-06-10T08:15:52.258Z,101227.03
2023-06-10T08:18:18.791Z,101225.09
2023-06-10T08:20:45.357Z,101218.56
2023-06-10T08:23:11.895Z,101217.38
2023-06-10T08:25:38.435Z,101227.06
2023-06-10T08:28:06.480Z,101226.66
2023-06-10T08:30:33.039Z,101223.78
2023-06-10T08:33:00.573Z,101223.16
2023-06-10T08:35:27.190Z,101221.44
2023-06-10T08:37:53.788Z,101217.66
2023-06-10T08:40:20.407Z,101220.22
2023-06-10T08:42:53.585Z,101218.03
2023-06-10T08:45:24.436Z,101217.88
2023-06-10T08:47:51.846Z,101226.41
2023-06-10T08:50:19.674Z,101226.56
2023-06-10T08:52:49.396Z,101225.88
2023-06-10T08:55:19.594Z,101225.28
2023-06-10T08:57:46.706Z,101223.88
2023-06-10T09:00:14.685Z,101222.41
2023-06-10T09:02:44.007Z,101220.38
2023-06-10T09:05:11.429Z,101221.94
2023-06-10T09:07:38.573Z,101221.69
2023-06-10T09:10:06.624Z,101214.91
2023-06-10T09:12:35.257Z,101219.91
2023-06-10T09:15:03.591Z,101219.78
2023-06-10T09:17:30.857Z,101222.28
2023-06-10T09:20:00.125Z,101218.19
2023-06-10T09:22:26.671Z,101208.88
2023-06-10T09:25:02.535Z,101213.75
2023-06-10T09:27:31.166Z,101200.94
2023-06-10T09:29:57.726Z,101214.81
2023-06-10T09:32:25.114Z,101212.09
2023-06-10T09:34:51.740Z,101213.00
2023-06-10T09:37:22.552Z,101207.72
2023-06-10T09:40:03.564Z,101210.63
2023-06-10T09:42:33.539Z,101207.41
2023-06-10T09:45:00.078Z,101206.38
2023-06-10T09:47:26.651Z,101209.50
2023-06-10T09:49:53.201Z,101205.31
2023-06-10T09:52:24.090Z,101199.72
2023-06-10T09:54:51.324Z,101207.38
2023-06-10T09:57:18.679Z,101209.41
2023-06-10T09:59:47.982Z,101205.59
2023-06-10T10:02:15.893Z,101201.56
2023-06-10T10:04:42.578Z,101198.09
2023-06-10T10:07:09.659Z,101203.03
2023-06-10T10:09:38.045Z,101201.88
2023-06-10T10:12:09.961Z,101191.75
2023-06-10T10:14:37.444Z,101199.69
2023-06-10T10:17:08.487Z,101198.34
2023-06-10T10:19:41.091Z,101199.47
2023-06-10T10:22:11.657Z,101190.88
2023-06-10T10:24:42.581Z,101186.31
2023-06-10T10:27:18.416Z,101188.03
2023-06-10T10:29:48.510Z,101194.38
2023-06-10T10:32:17.198Z,101187.06
2023-06-10T10:34:50.489Z,101189.81
2023-06-10T10:37:18.509Z,101189.81
2023-06-10T10:39:46.584Z,101195.00
2023-06-10T10:42:14.117Z,101178.06
2023-06-10T10:44:41.767Z,101183.28
2023-06-10T10:47:10.035Z,101181.94
2023-06-10T10:49:37.995Z,101175.66
2023-06-10T10:52:05.519Z,101178.13
2023-06-10T10:54:33.687Z,101182.25
2023-06-10T10:57:18.327Z,101178.97
2023-06-10T10:59:46.662Z,101167.75
2023-06-10T11:02:17.304Z,101177.63
2023-06-10T11:04:47.126Z,101168.31
2023-06-10T11:07:14.434Z,101169.09
2023-06-10T11:09:58.917Z,101165.00
2023-06-10T11:12:27.147Z,101173.47
2023-06-10T11:14:55.632Z,101162.53
2023-06-10T11:17:22.418Z,101154.03
2023-06-10T11:19:49.009Z,101155.91
2023-06-10T11:22:18.173Z,101159.97
2023-06-10T11:24:48.905Z,101151.97
2023-06-10T11:27:16.649Z,101159.34
2023-06-10T11:29:58.311Z,101152.44
2023-06-10T11:32:30.076Z,101149.91
2023-06-10T11:34:57.136Z,101146.28
2023-06-10T11:37:23.728Z,101144.81
2023-06-10T11:39:52.869Z,101147.75
2023-06-10T11:42:20.177Z,101136.81
2023-06-10T11:44:49.673Z,101139.03
2023-06-10T11:47:17.708Z,101134.56
2023-06-10T11:49:46.450Z,101132.28
2023-06-10T11:52:14.628Z,101138.53
2023-06-10T11:54:41.193Z,101137.50
2023-06-10T11:57:07.785Z,101138.19
2023-06-10T11:59:34.462Z,101131.28
2023-06-10T12:02:01.064Z,101129.25
2023-06-10T12:04:28.909Z,101127.50
2023-06-10T12:06:56.300Z,101130.22
2023-06-10T12:09:26.994Z,101124.94
2023-06-10T12:11:57.840Z,101132.19
2023-06-10T12:14:53.004Z,101122.38
2023-06-10T12:17:19.737Z,101126.50
2023-06-10T12:19:47.645Z,101122.50
2023-06-10T12:22:14.763Z,101121.47
2023-06-10T12:24:45.188Z,101121.94
2023-06-10T12:27:12.452Z,101123.78
2023-06-10T12:29:39.026Z,101116.81
2023-06-10T12:32:06.468Z,101114.75
2023-06-10T12:34:35.459Z,101111.97
2023-06-10T12:37:04.161Z,101119.50
2023-06-10T12:39:31.492Z,101109.84
2023-06-10T12:41:58.454Z,101113.59
2023-06-10T12:44:34.969Z,101106.31
2023-06-10T12:47:01.873Z,101113.41
2023-06-10T12:49:28.452Z,101110.56
2023-06-10T12:51:55.117Z,101110.66
2023-06-10T12:54:23.039Z,101108.75
2023-06-10T12:56:49.661Z,101099.63
2023-06-10T12:59:16.202Z,101104.09
2023-06-10T13:01:42.848Z,101098.97
2023-06-10T13:04:09.445Z,101098.19
2023-06-10T13:06:36.011Z,101100.66
2023-06-10T13:09:02.763Z,101098.97
2023-06-10T13:11:30.681Z,101098.00
2023-06-10T13:13:57.257Z,101093.03
2023-06-10T13:16:23.867Z,101090.94
2023-06-10T13:18:50.498Z,101096.22
2023-06-10T13:21:17.015Z,101082.75
2023-06-10T13:23:45.270Z,101088.41
2023-06-10T13:26:11.855Z,101089.88
2023-06-10T13:28:39.766Z,101086.53
2023-06-10T13:31:06.367Z,101090.09
2023-06-10T13:33:32.940Z,101084.59
2023-06-10T13:35:59.502Z,101082.34
2023-06-10T13:38:26.067Z,101077.66
2023-06-10T13:40:52.601Z,101085.34
2023-06-10T13:43:19.135Z,101070.88
2023-06-10T13:45:47.008Z,101073.50
2023-06-10T13:48:13.645Z,101066.47
2023-06-10T13:50:40.230Z,101068.28
2023-06-10T13:53:06.809Z,101057.28
2023-06-10T13:55:33.368Z,101064.72
2023-06-10T13:57:59.895Z,101056.91
2023-06-10T14:00:26.418Z,101060.22
2023-06-10T14:02:54.394Z,101057.50
2023-06-10T14:05:20.991Z,101057.69
2023-06-10T14:07:47.499Z,101054.25
2023-06-10T14:10:14.012Z,101061.97
2023-06-10T14:12:40.570Z,101054.91
2023-06-10T14:15:08.573Z,101054.66
2023-06-10T14:17:35.392Z,101054.84
2023-06-10T14:20:03.656Z,101047.94
2023-06-10T14:22:30.274Z,101048.38
2023-06-10T14:24:56.846Z,101051.84
2023-06-10T14:27:23.399Z,101055.78
2023-06-10T14:29:49.959Z,101063.94
2023-06-10T14:32:16.636Z,101064.72
2023-06-10T14:34:43.260Z,101061.22
2023-06-10T14:37:11.251Z,101056.75
2023-06-10T14:39:37.781Z,101054.94
2023-06-10T14:42:04.984Z,101055.75
2023-06-10T14:44:31.515Z,101054.34
2023-06-10T14:46:58.079Z,101055.97
2023-06-10T14:49:24.582Z,101044.13
2023-06-10T14:51:51.191Z,101042.16
2023-06-10T14:54:19.074Z,101048.13
2023-06-10T14:56:45.610Z,101056.84
2023-06-10T14:59:12.216Z,101056.56
2023-06-10T15:01:38.978Z,101054.34
2023-06-10T15:04:05.605Z,101055.56
2023-06-10T15:06:32.179Z,101051.19
2023-06-10T15:08:58.738Z,101050.47
2023-06-10T15:11:26.619Z,101043.44
2023-06-10T15:13:53.176Z,101043.84
2023-06-10T15:16:19.799Z,101042.03
2023-06-10T15:18:46.346Z,101041.50
2023-06-10T15:21:12.869Z,101037.72
2023-06-10T15:23:39.426Z,101036.97
2023-06-10T15:26:06.111Z,101038.34
2023-06-10T15:28:33.966Z,101037.56
2023-06-10T15:31:00.597Z,101038.97
2023-06-10T15:33:27.166Z,101028.53
2023-06-10T15:35:53.737Z,101022.56
2023-06-10T15:38:20.358Z,101022.84
2023-06-10T15:40:46.887Z,101017.09
2023-06-10T15:43:13.492Z,101018.72
2023-06-10T15:45:41.467Z,101015.94
2023-06-10T15:48:08.145Z,101014.84
2023-06-10T15:50:34.744Z,101005.25
2023-06-10T15:53:01.257Z,101014.78
2023-06-10T15:55:27.788Z,101004.66
2023-06-10T15:57:54.317Z,101010.66
2023-06-10T16:00:21.262Z,101005.44
2023-06-10T16:02:49.271Z,101006.25
2023-06-10T16:05:16.113Z,101000.25
2023-06-10T16:07:43.035Z,101003.25
2023-06-10T16:10:10.125Z,101000.53
2023-06-10T16:12:36.682Z,100998.31
2023-06-10T16:15:03.372Z,100997.16
2023-06-10T16:17:30.143Z,101000.44
2023-06-10T16:19:58.033Z,100993.56
2023-06-10T16:22:24.643Z,100998.72
2023-06-10T16:24:51.182Z,100994.03
2023-06-10T16:27:17.767Z,100995.09
2023-06-10T16:29:44.284Z,101003.31
2023-06-10T16:32:10.861Z,101000.34
2023-06-10T16:34:37.432Z,100999.34
2023-06-10T16:37:05.358Z,100997.50
2023-06-10T16:39:31.953Z,100995.84
2023-06-10T16:41:58.535Z,100990.72
2023-06-10T16:44:25.405Z,100993.72
2023-06-10T16:46:52.021Z,100993.25
2023-06-10T16:49:18.620Z,100993.56
2023-06-10T16:51:45.211Z,100993.84
2023-06-10T16:54:13.413Z,100997.09
2023-06-10T16:56:39.970Z,100989.69
2023-06-10T16:59:06.545Z,100992.69
2023-06-10T17:01:33.172Z,100994.59
2023-06-10T17:03:59.754Z,100990.72
2023-06-10T17:06:26.285Z,101000.03
2023-06-10T17:08:52.851Z,101007.97
2023-06-10T17:11:20.684Z,101008.22
2023-06-10T17:13:47.314Z,101007.25
2023-06-10T17:16:13.958Z,101004.75
2023-06-10T17:18:40.701Z,101006.53
2023-06-10T17:21:07.384Z,100998.84
2023-06-10T17:23:34.100Z,101009.69
2023-06-10T17:26:00.681Z,101002.50
2023-06-10T17:28:28.594Z,101005.91
2023-06-10T17:30:55.402Z,101014.22
2023-06-10T17:33:22.001Z,101009.94
2023-06-10T17:35:48.645Z,101012.22
2023-06-10T17:38:15.331Z,101017.44
2023-06-10T17:40:42.127Z,101016.44
2023-06-10T17:43:08.689Z,101023.34
2023-06-10T17:45:36.596Z,101025.84
2023-06-10T17:48:03.510Z,101016.28
2023-06-10T17:50:30.208Z,101019.63
2023-06-10T17:52:56.758Z,101024.00
2023-06-10T17:55:23.394Z,101028.38
2023-06-10T17:57:50.176Z,101025.13
2023-06-10T18:00:17.383Z,101030.91
2023-06-10T18:02:45.441Z,101034.19
2023-06-10T18:05:12.463Z,101034.72
2023-06-10T18:07:39.232Z,101033.38
2023-06-10T18:10:06.823Z,101031.44
2023-06-10T18:12:33.455Z,101030.09
2023-06-10T18:15:00.050Z,101027.63
2023-06-10T18:17:26.660Z,101026.78
2023-06-10T18:19:54.495Z,101039.09
2023-06-10T18:22:21.082Z,101036.09
2023-06-10T18:24:47.695Z,101042.09
2023-06-10T18:27:16.601Z,101036.66
2023-06-10T18:29:43.696Z,101035.50
2023-06-10T18:32:10.591Z,101046.44
2023-06-10T18:34:37.493Z,101043.44
2023-06-10T18:37:08.144Z,101042.59
2023-06-10T18:39:35.946Z,101042.34
2023-06-10T18:42:02.733Z,101039.03
2023-06-10T18:44:29.353Z,101048.03
2023-06-10T18:46:56.033Z,101047.47
2023-06-10T18:49:22.571Z,101058.41
2023-06-10T18:51:49.099Z,101052.34
2023-06-10T18:54:17.091Z,101062.19
2023-06-10T18:56:43.635Z,101061.63
2023-06-10T18:59:10.166Z,101056.22
2023-06-10T19:01:36.806Z,101063.88
2023-06-10T19:04:03.616Z,101068.56
2023-06-10T19:06:30.228Z,101066.94
2023-06-10T19:08:56.771Z,101065.09
2023-06-10T19:11:24.654Z,101069.47
2023-06-10T19:13:51.206Z,101078.72
2023-06-10T19:16:17.860Z,101070.19
2023-06-10T19:18:44.430Z,101074.84
2023-06-10T19:21:11.072Z,101077.25
2023-06-10T19:23:37.687Z,101076.94
2023-06-10T19:26:04.301Z,101074.72
2023-06-10T19:28:32.286Z,101078.47
2023-06-10T19:30:58.892Z,101083.31
2023-06-10T19:33:25.398Z,101089.56
2023-06-10T19:35:52.004Z,101091.41
2023-06-10T19:38:19.046Z,101098.97
2023-06-10T19:40:45.604Z,101102.34
2023-06-10T19:43:12.134Z,101103.38
2023-06-10T19:45:40.012Z,101102.47
2023-06-10T19:48:08.591Z,101107.81
2023-06-10T19:50:36.840Z,101111.28
2023-06-10T19:53:03.386Z,101105.97
2023-06-10T19:55:29.957Z,101105.63
2023-06-10T19:57:56.529Z,101114.47
2023-06-10T20:00:23.157Z,101112.22
2023-06-10T20:02:51.091Z,101115.66
2023-06-10T20:05:17.654Z,101119.66
2023-06-10T20:07:44.371Z,101115.47
2023-06-10T20:10:10.981Z,101127.97
2023-06-10T20:12:37.521Z,101119.97
2023-06-10T20:15:04.747Z,101129.63
2023-06-10T20:17:31.312Z,101118.94
2023-06-10T20:19:59.240Z,101120.69
2023-06-10T20:22:25.771Z,101122.22
2023-06-10T20:24:52.494Z,101126.50
2023-06-10T20:27:19.272Z,101121.97
2023-06-10T20:29:45.964Z,101130.63
2023-06-10T20:32:12.689Z,101134.34
2023-06-10T20:34:39.261Z,101139.72
2023-06-10T20:37:07.256Z,101143.50
2023-06-10T20:39:33.874Z,101142.81
2023-06-10T20:42:00.454Z,101145.22
2023-06-10T20:44:26.971Z,101144.56
2023-06-10T20:46:53.534Z,101143.38
2023-06-10T20:49:20.115Z,101146.03
2023-06-10T20:51:46.659Z,101153.03
2023-06-10T20:54:14.537Z,101151.38
2023-06-10T20:56:41.085Z,101154.28
2023-06-10T20:59:07.642Z,101147.06
2023-06-10T21:01:34.440Z,101153.25
2023-06-10T21:04:01.144Z,101151.25
2023-06-10T21:06:27.739Z,101155.06
2023-06-10T21:08:54.327Z,101155.56
2023-06-10T21:11:22.246Z,101149.78
2023-06-10T21:13:48.833Z,101158.66
2023-06-10T21:16:15.455Z,101152.31
2023-06-10T21:18:42.117Z,101157.38
2023-06-10T21:21:08.905Z,101154.06
2023-06-10T21:23:35.482Z,101160.00
2023-06-10T21:26:02.116Z,101151.75
2023-06-10T21:28:30.018Z,101151.66
2023-06-10T21:30:56.597Z,101158.38
2023-06-10T21:33:23.151Z,101159.09
2023-06-10T21:35:49.797Z,101163.38
2023-06-10T21:38:16.416Z,101160.56
2023-06-10T21:40:42.935Z,101157.41
2023-06-10T21:43:09.509Z,101164.34
2023-06-10T21:45:37.398Z,101162.38
2023-06-10T21:48:04.028Z,101161.78
2023-06-10T21:50:30.580Z,101168.50
2023-06-10T21:52:59.535Z,101165.13
2023-06-10T21:55:27.751Z,101172.66
2023-06-10T21:57:54.367Z,101170.66
2023-06-10T22:00:20.970Z,101175.47
2023-06-10T22:02:48.995Z,101172.06
2023-06-10T22:05:15.625Z,101171.47
2023-06-10T22:07:42.325Z,101168.66
2023-06-10T22:10:09.389Z,101181.03
2023-06-10T22:12:35.974Z,101174.41
2023-06-10T22:15:02.547Z,101176.56
2023-06-10T22:17:29.131Z,101174.31
2023-06-10T22:19:57.240Z,101176.44
2023-06-10T22:22:23.810Z,101177.38
2023-06-10T22:24:55.305Z,101175.72
2023-06-10T22:27:24.138Z,101178.66
2023-06-10T22:29:51.124Z,101178.31
2023-06-10T22:32:17.784Z,101181.47
2023-06-10T22:34:44.383Z,101176.53
2023-06-10T22:37:12.270Z,101177.00
2023-06-10T22:39:38.848Z,101180.66
2023-06-10T22:42:06.231Z,101184.28
2023-06-10T22:44:32.769Z,101185.25
2023-06-10T22:46:59.307Z,101188.38
2023-06-10T22:49:25.831Z,101184.34
2023-06-10T22:51:52.422Z,101182.09
2023-06-10T22:54:20.356Z,101184.22
2023-06-10T22:56:46.899Z,101183.50
2023-06-10T22:59:13.476Z,101179.34
2023-06-10T23:01:40.118Z,101177.69
2023-06-10T23:04:06.738Z,101176.03
2023-06-10T23:06:33.307Z,101182.78
2023-06-10T23:08:59.924Z,101179.47
2023-06-10T23:11:27.837Z,101183.44
2023-06-10T23:13:54.365Z,101176.47
2023-06-10T23:16:20.920Z,101178.81
2023-06-10T23:18:47.475Z,101174.66
2023-06-10T23:21:13.997Z,101183.84
2023-06-10T23:23:40.520Z,101175.13
2023-06-10T23:26:07.084Z,101177.25
2023-06-10T23:28:35.013Z,101181.69
2023-06-10T23:31:01.538Z,101188.41
2023-06-10T23:33:28.291Z,101186.38
2023-06-10T23:35:55.128Z,101182.47
2023-06-10T23:38:21.668Z,101184.00
2023-06-10T23:40:48.243Z,101174.63
2023-06-10T23:43:14.854Z,101186.75
2023-06-10T23:45:42.767Z,101176.84
2023-06-10T23:48:09.576Z,101182.47
2023-06-10T23:50:36.201Z,101175.22
2023-06-10T23:53:03.109Z,101176.16
2023-06-10T23:55:29.687Z,101174.13
2023-06-10T23:57:57.377Z,101176.00
